Time;durP1;ratioP1;P1;durP2;ratioP2;P2;SDS_P1;SDS_P2;PMS_P1;PMS_P2;Temp;Humidity;BMP_temperature;BMP_pressure;BME280_temperature;BME280_humidity;BME280_pressure;Samples;Min_cycle;Max_cycle;Signal;HPM_P1;HPM_P2
2023/06/25 00:00:57;;;;;;;11.93;8.97;;;;;24.60;100966.00;;;;2074042;28;20209;-57
2023/06/25 00:01:58;;;;;;;8.97;8.17;;;;;24.60;100962.00;;;;2082904;28;20326;-57
2023/06/25 00:02:58;;;;;;;9.70;8.70;;;;;24.60;100953.00;;;;2083769;28;20254;-57
2023/06/25 00:03:58;;;;;;;9.00;8.20;;;;;24.60;100957.00;;;;2083191;28;20357;-57
2023/06/25 00:04:59;;;;;;;9.30;8.50;;;;;24.60;100951.00;;;;2083077;28;20216;-57
2023/06/25 00:05:59;;;;;;;10.10;9.07;;;;;24.60;100953.00;;;;2070675;28;20601;-57
2023/06/25 00:07:00;;;;;;;9.40;8.60;;;;;24.60;100953.00;;;;2082153;28;20574;-57
2023/06/25 00:08:00;;;;;;;10.20;8.53;;;;;24.60;100957.00;;;;2073881;28;20653;-56
2023/06/25 00:09:00;;;;;;;9.97;9.07;;;;;24.60;100952.00;;;;2071388;28;20237;-56
2023/06/25 00:10:01;;;;;;;10.50;9.40;;;;;24.60;100953.00;;;;2083546;28;20219;-57
2023/06/25 00:11:01;;;;;;;10.73;9.77;;;;;24.60;100959.00;;;;2074193;28;20216;-57
2023/06/25 00:12:02;;;;;;;10.00;9.10;;;;;24.60;100953.00;;;;2074103;28;20226;-57
2023/06/25 00:13:02;;;;;;;10.73;9.73;;;;;24.60;100951.00;;;;2079607;28;20311;-56
2023/06/25 00:14:03;;;;;;;10.67;9.67;;;;;24.50;100946.00;;;;2084510;28;20209;-57
2023/06/25 00:15:05;;;;;;;9.50;8.57;;;;;24.60;100947.00;;;;2075149;28;20694;-57
2023/06/25 00:16:06;;;;;;;12.25;9.40;;;;;24.60;100946.00;;;;2054511;28;20223;-56
2023/06/25 00:17:06;;;;;;;9.93;8.93;;;;;24.60;100946.00;;;;2075208;28;20226;-57
2023/06/25 00:18:08;;;;;;;11.13;8.40;;;;;24.50;100948.00;;;;2084478;28;20240;-58
2023/06/25 00:19:08;;;;;;;9.73;7.90;;;;;24.50;100946.00;;;;2083765;28;20224;-58
2023/06/25 00:20:09;;;;;;;9.30;8.40;;;;;24.50;100951.00;;;;2081926;28;20237;-56
2023/06/25 00:21:10;;;;;;;9.13;8.07;;;;;24.50;100940.00;;;;2073609;28;20232;-57
2023/06/25 00:22:13;;;;;;;9.63;8.73;;;;;24.50;100940.00;;;;2084307;28;20290;-57
2023/06/25 00:23:14;;;;;;;9.27;8.38;;;;;24.50;100941.00;;;;2074004;28;20213;-57
2023/06/25 00:24:15;;;;;;;9.47;8.03;;;;;24.50;100936.00;;;;2069479;28;20217;-58
2023/06/25 00:25:16;;;;;;;8.50;7.80;;;;;24.50;100931.00;;;;2076252;28;20426;-58
2023/06/25 00:26:16;;;;;;;8.60;7.77;;;;;24.50;100941.00;;;;2066672;28;20214;-57
2023/06/25 00:27:17;;;;;;;8.77;8.00;;;;;24.50;100939.00;;;;2076774;28;20456;-56
2023/06/25 00:28:18;;;;;;;8.67;7.97;;;;;24.50;100936.00;;;;2079477;28;20288;-56
2023/06/25 00:29:18;;;;;;;9.05;8.15;;;;;24.20;100944.00;;;;2081898;28;20216;-58
2023/06/25 00:30:19;;;;;;;9.33;7.30;;;;;24.50;100934.00;;;;2082682;28;20267;-56
2023/06/25 00:31:19;;;;;;;8.03;7.23;;;;;24.50;100933.00;;;;2073543;28;20205;-58
2023/06/25 00:32:20;;;;;;;8.80;8.00;;;;;24.50;100934.00;;;;2079650;28;20283;-57
2023/06/25 00:33:20;;;;;;;7.90;7.20;;;;;24.50;100933.00;;;;2083019;28;20289;-57
2023/06/25 00:34:20;;;;;;;8.30;7.60;;;;;24.50;100937.00;;;;2084611;28;20262;-57
2023/06/25 00:35:24;;;;;;;7.90;7.20;;;;;24.50;100935.00;;;;2079068;28;20209;-57
2023/06/25 00:36:25;;;;;;;8.25;7.45;;;;;24.50;100935.00;;;;2077313;28;20911;-58
2023/06/25 00:37:25;;;;;;;7.83;7.13;;;;;24.50;100925.00;;;;2079504;28;20231;-57
2023/06/25 00:38:25;;;;;;;7.73;6.93;;;;;24.50;100933.00;;;;2083484;28;20975;-57
2023/06/25 00:39:26;;;;;;;7.97;7.17;;;;;24.50;100927.00;;;;2079438;28;20213;-57
2023/06/25 00:40:26;;;;;;;7.87;7.27;;;;;24.50;100927.00;;;;2070876;28;20271;-56
2023/06/25 00:41:26;;;;;;;8.37;7.57;;;;;24.50;100932.00;;;;2079350;28;20706;-57
2023/06/25 00:42:27;;;;;;;7.80;7.00;;;;;24.40;100924.00;;;;2081608;28;20708;-58
2023/06/25 00:43:27;;;;;;;7.83;7.03;;;;;24.50;100932.00;;;;2084660;28;20205;-58
2023/06/25 00:44:28;;;;;;;6.77;6.17;;;;;24.50;100926.00;;;;2086446;28;20219;-58
2023/06/25 00:45:28;;;;;;;7.30;6.60;;;;;24.40;100935.00;;;;2071461;28;20237;-57
2023/06/25 00:46:30;;;;;;;7.03;6.43;;;;;24.50;100929.00;;;;2077136;28;20992;-56
2023/06/25 00:47:32;;;;;;;7.82;7.13;;;;;24.50;100933.00;;;;2066925;28;20908;-56
2023/06/25 00:48:32;;;;;;;7.40;6.80;;;;;24.40;100923.00;;;;2069563;28;20222;-57
2023/06/25 00:49:33;;;;;;;7.10;6.50;;;;;24.40;100924.00;;;;2076559;28;20603;-56
2023/06/25 00:50:34;;;;;;;7.65;6.95;;;;;24.40;100927.00;;;;2066686;28;20244;-58
2023/06/25 00:51:35;;;;;;;7.30;6.60;;;;;24.40;100927.00;;;;2086519;28;20228;-57
2023/06/25 00:52:35;;;;;;;6.93;6.32;;;;;24.40;100917.00;;;;2083827;28;20232;-58
2023/06/25 00:53:36;;;;;;;7.27;6.60;;;;;24.40;100913.00;;;;2079677;28;20221;-57
2023/06/25 00:54:41;;;;;;;7.50;6.87;;;;;24.40;100906.00;;;;2080180;28;20618;-57
2023/06/25 00:55:41;;;;;;;8.20;7.35;;;;;24.40;100913.00;;;;2067280;28;20218;-58
2023/06/25 00:56:42;;;;;;;7.80;7.03;;;;;24.40;100914.00;;;;2076933;28;20756;-58
2023/06/25 00:57:42;;;;;;;7.13;6.53;;;;;24.40;100911.00;;;;2085462;28;20248;-57
2023/06/25 00:58:43;;;;;;;7.50;6.90;;;;;24.50;100914.00;;;;2077031;28;20218;-57
2023/06/25 00:59:44;;;;;;;7.17;6.47;;;;;24.50;100916.00;;;;2076452;28;20205;-57
2023/06/25 01:00:46;;;;;;;7.55;6.80;;;;;24.40;100914.00;;;;2067351;28;20233;-57
2023/06/25 01:01:51;;;;;;;7.25;6.65;;;;;24.40;100914.00;;;;2085501;28;20247;-58
2023/06/25 01:03:14;;;;;;;7.47;6.57;;;;;24.40;100913.00;;;;2086222;28;20223;-56
2023/06/25 01:04:27;;;;;;;7.60;6.90;;;;;24.40;100912.00;;;;2081482;28;20270;-57
2023/06/25 01:05:48;;;;;;;7.72;7.00;;;;;24.40;100911.00;;;;2060770;28;20209;-56
2023/06/25 01:06:51;;;;;;;7.40;6.70;;;;;24.40;100911.00;;;;2076934;28;20300;-57
2023/06/25 01:07:52;;;;;;;7.97;7.28;;;;;24.40;100917.00;;;;2075518;28;20988;-57
2023/06/25 01:08:53;;;;;;;7.10;6.45;;;;;24.40;100910.00;;;;2055778;28;20207;-56
2023/06/25 01:09:54;;;;;;;8.03;7.33;;;;;24.40;100898.00;;;;2060979;28;20211;-57
2023/06/25 01:10:55;;;;;;;7.85;7.10;;;;;24.40;100907.00;;;;2050991;28;20257;-57
2023/06/25 01:12:05;;;;;;;6.90;6.30;;;;;24.40;100800.00;;;;2068723;28;20727;-57
2023/06/25 01:13:05;;;;;;;9.80;6.93;;;;;24.50;100907.00;;;;2085720;28;20221;-57
2023/06/25 01:14:06;;;;;;;7.97;7.17;;;;;24.40;100905.00;;;;2076570;28;20287;-56
2023/06/25 01:15:09;;;;;;;7.63;7.03;;;;;24.40;100895.00;;;;2073457;28;20230;-57
2023/06/25 01:16:09;;;;;;;7.80;7.00;;;;;24.40;100890.00;;;;2053108;28;20245;-57
2023/06/25 01:17:10;;;;;;;8.53;7.73;;;;;24.40;100907.00;;;;2069543;28;20217;-57
2023/06/25 01:18:13;;;;;;;8.20;7.47;;;;;24.40;100905.00;;;;2068177;28;20214;-57
2023/06/25 01:19:14;;;;;;;8.57;7.78;;;;;24.40;100893.00;;;;2053253;28;20706;-56
2023/06/25 01:20:15;;;;;;;7.30;6.60;;;;;24.40;100902.00;;;;2061980;28;20211;-56
2023/06/25 01:21:17;;;;;;;8.60;7.80;;;;;24.40;100899.00;;;;2061915;28;20906;-58
2023/06/25 01:22:17;;;;;;;8.70;7.90;;;;;24.40;100902.00;;;;2066595;28;20218;-57
2023/06/25 01:23:17;;;;;;;7.97;7.17;;;;;24.40;100907.00;;;;2069011;28;20704;-57
2023/06/25 01:24:18;;;;;;;10.30;8.00;;;;;24.40;100908.00;;;;2068954;28;20206;-56
2023/06/25 01:25:18;;;;;;;8.27;7.57;;;;;24.40;100898.00;;;;2065682;28;20210;-58
2023/06/25 01:26:19;;;;;;;8.13;7.37;;;;;24.40;100896.00;;;;2068415;28;20244;-57
2023/06/25 01:27:21;;;;;;;8.30;7.50;;;;;24.40;100891.00;;;;2066805;28;20230;-56
2023/06/25 01:28:21;;;;;;;7.70;7.00;;;;;24.40;100909.00;;;;2069530;28;20213;-56
2023/06/25 01:29:22;;;;;;;8.33;7.57;;;;;24.40;100891.00;;;;2086325;28;20211;-57
2023/06/25 01:30:25;;;;;;;7.47;6.87;;;;;24.40;100889.00;;;;2082126;28;20240;-59
2023/06/25 01:31:30;;;;;;;8.55;7.75;;;;;24.40;100897.00;;;;2085079;28;20998;-57
2023/06/25 01:32:31;;;;;;;8.05;7.30;;;;;24.40;100892.00;;;;2081837;28;20213;-57
2023/06/25 01:33:32;;;;;;;8.10;7.30;;;;;24.40;100890.00;;;;2077211;28;20222;-56
2023/06/25 01:34:32;;;;;;;8.75;7.78;;;;;24.40;100885.00;;;;2075629;28;20222;-58
2023/06/25 01:35:33;;;;;;;7.37;6.50;;;;;24.40;100892.00;;;;2053434;28;20289;-57
2023/06/25 01:36:39;;;;;;;6.83;6.23;;;;;24.40;100891.00;;;;2069995;28;20226;-58
2023/06/25 01:37:40;;;;;;;8.27;7.50;;;;;24.40;100890.00;;;;2083453;28;20776;-56
2023/06/25 01:38:40;;;;;;;7.30;6.67;;;;;24.40;100892.00;;;;2058409;28;20223;-56
2023/06/25 01:39:40;;;;;;;7.57;6.87;;;;;24.40;100891.00;;;;2068314;28;20276;-56
2023/06/25 01:40:40;;;;;;;8.20;7.30;;;;;24.40;100890.00;;;;2071077;28;20251;-57
2023/06/25 01:41:42;;;;;;;7.67;6.97;;;;;24.40;100889.00;;;;2080016;28;20212;-58
2023/06/25 01:42:43;;;;;;;7.45;6.75;;;;;24.40;100883.00;;;;2083538;28;20240;-59
2023/06/25 01:43:43;;;;;;;7.57;6.77;;;;;24.40;100887.00;;;;2078902;28;20567;-57
2023/06/25 01:44:43;;;;;;;7.40;6.80;;;;;24.40;100851.00;;;;2085345;28;20459;-58
2023/06/25 01:45:44;;;;;;;7.23;6.60;;;;;24.40;100884.00;;;;2075920;28;20225;-58
2023/06/25 01:46:44;;;;;;;7.07;6.00;;;;;24.40;100884.00;;;;2081422;28;20936;-57
2023/06/25 01:47:45;;;;;;;8.30;6.60;;;;;24.40;100895.00;;;;2085166;28;20241;-58
2023/06/25 01:48:45;;;;;;;6.73;6.03;;;;;24.40;100896.00;;;;2077579;28;20939;-57
2023/06/25 01:49:45;;;;;;;7.40;6.70;;;;;24.40;100894.00;;;;2085829;28;20587;-57
2023/06/25 01:50:47;;;;;;;6.83;6.23;;;;;24.40;100866.00;;;;2074527;28;20732;-57
2023/06/25 01:51:48;;;;;;;6.97;6.30;;;;;24.40;100869.00;;;;2082777;28;20243;-57
2023/06/25 01:52:48;;;;;;;6.60;6.00;;;;;24.40;100871.00;;;;2078883;28;20214;-56
2023/06/25 01:53:48;;;;;;;6.47;5.87;;;;;24.30;100868.00;;;;2082898;28;20244;-56
2023/06/25 01:54:49;;;;;;;6.00;5.43;;;;;24.30;100861.00;;;;2085765;28;20225;-57
2023/06/25 01:55:49;;;;;;;6.80;6.20;;;;;24.40;100863.00;;;;2075061;28;20264;-57
2023/06/25 01:56:49;;;;;;;6.97;6.27;;;;;24.40;100865.00;;;;2086148;28;20241;-57
2023/06/25 01:57:49;;;;;;;6.17;5.57;;;;;24.40;100867.00;;;;2085467;28;20236;-57
2023/06/25 01:58:52;;;;;;;6.50;5.70;;;;;24.40;100869.00;;;;2085614;28;20224;-57
2023/06/25 01:59:53;;;;;;;6.78;6.18;;;;;24.40;100868.00;;;;2084132;28;20299;-57
2023/06/25 02:00:53;;;;;;;7.10;6.40;;;;;24.40;100861.00;;;;2073801;28;20225;-57
2023/06/25 02:01:54;;;;;;;9.50;6.47;;;;;24.40;100851.00;;;;2085783;28;20244;-57
2023/06/25 02:02:54;;;;;;;6.37;5.77;;;;;24.40;100854.00;;;;2084211;28;20201;-57
2023/06/25 02:03:55;;;;;;;6.03;5.43;;;;;24.30;100858.00;;;;2079279;28;20230;-57
2023/06/25 02:04:55;;;;;;;7.57;6.77;;;;;24.30;100857.00;;;;2085141;28;20273;-57
2023/06/25 02:05:55;;;;;;;6.50;5.90;;;;;24.40;100850.00;;;;2070678;28;20866;-58
2023/06/25 02:06:56;;;;;;;6.70;6.10;;;;;24.40;100739.00;;;;2082054;28;20702;-56
2023/06/25 02:07:56;;;;;;;6.13;5.53;;;;;24.30;100845.00;;;;2083773;28;20718;-57
2023/06/25 02:08:56;;;;;;;5.97;5.47;;;;;24.40;100847.00;;;;2077264;28;20289;-57
2023/06/25 02:09:57;;;;;;;5.80;5.00;;;;;24.40;100850.00;;;;2075477;28;20684;-57
2023/06/25 02:10:57;;;;;;;5.77;5.27;;;;;24.30;100850.00;;;;2075383;28;20236;-57
2023/06/25 02:11:58;;;;;;;6.47;5.63;;;;;24.30;100851.00;;;;2075303;28;20240;-57
2023/06/25 02:12:58;;;;;;;5.60;5.10;;;;;24.30;100854.00;;;;2068449;28;20274;-57
2023/06/25 02:13:58;;;;;;;5.27;4.87;;;;;24.30;100851.00;;;;2070801;28;20301;-57
2023/06/25 02:14:59;;;;;;;6.13;5.53;;;;;24.30;100848.00;;;;2072217;28;20298;-57
2023/06/25 02:16:00;;;;;;;6.00;5.50;;;;;24.30;100845.00;;;;2070069;28;20236;-56
2023/06/25 02:17:00;;;;;;;6.13;5.53;;;;;24.30;100849.00;;;;2069249;28;20234;-56
2023/06/25 02:18:00;;;;;;;5.70;5.20;;;;;24.30;100850.00;;;;2072515;28;20481;-57
2023/06/25 02:19:01;;;;;;;5.43;4.93;;;;;24.30;100847.00;;;;2085115;28;20622;-57
2023/06/25 02:20:01;;;;;;;5.40;4.90;;;;;24.30;100845.00;;;;2084939;28;20282;-56
2023/06/25 02:21:01;;;;;;;6.17;5.57;;;;;24.30;100844.00;;;;2073842;28;20220;-57
2023/06/25 02:22:02;;;;;;;5.67;5.17;;;;;24.30;100845.00;;;;2081634;28;20243;-56
2023/06/25 02:23:02;;;;;;;6.13;5.30;;;;;24.30;100843.00;;;;2082961;28;20212;-57
2023/06/25 02:24:03;;;;;;;5.97;5.37;;;;;24.30;100846.00;;;;2082828;28;20692;-57
2023/06/25 02:25:03;;;;;;;6.73;5.77;;;;;24.30;100844.00;;;;2085696;28;20588;-56
2023/06/25 02:26:04;;;;;;;5.43;4.93;;;;;24.30;100839.00;;;;2072951;28;20213;-57
2023/06/25 02:27:04;;;;;;;6.37;5.77;;;;;24.30;100844.00;;;;2085188;28;20223;-55
2023/06/25 02:28:05;;;;;;;5.30;4.87;;;;;24.30;100845.00;;;;2085633;28;20308;-57
2023/06/25 02:29:05;;;;;;;5.50;5.00;;;;;24.30;100839.00;;;;2072961;28;20256;-58
2023/06/25 02:30:06;;;;;;;5.13;4.63;;;;;24.30;100837.00;;;;2064362;28;20233;-57
2023/06/25 02:31:06;;;;;;;6.50;4.87;;;;;24.30;100844.00;;;;2065656;28;20233;-56
2023/06/25 02:32:08;;;;;;;6.13;5.43;;;;;24.30;100838.00;;;;2080762;28;20483;-57
2023/06/25 02:33:08;;;;;;;5.30;4.78;;;;;24.30;100846.00;;;;2077956;28;20248;-57
2023/06/25 02:34:09;;;;;;;5.10;4.70;;;;;24.30;100843.00;;;;2085236;28;20938;-57
2023/06/25 02:35:09;;;;;;;5.10;4.60;;;;;24.30;100831.00;;;;2081921;28;20301;-56
2023/06/25 02:36:10;;;;;;;5.50;4.93;;;;;24.30;100834.00;;;;2072042;28;20216;-56
2023/06/25 02:37:14;;;;;;;5.00;4.50;;;;;24.30;100846.00;;;;2085828;28;20244;-56
2023/06/25 02:38:14;;;;;;;4.85;4.45;;;;;24.30;100837.00;;;;2084637;28;20216;-55
2023/06/25 02:39:14;;;;;;;6.63;4.50;;;;;24.30;100834.00;;;;2081000;28;20217;-56
2023/06/25 02:40:15;;;;;;;5.47;5.00;;;;;24.30;100837.00;;;;2081165;28;20306;-55
2023/06/25 02:41:15;;;;;;;4.73;4.33;;;;;24.30;100828.00;;;;2070832;28;20225;-56
2023/06/25 02:42:15;;;;;;;5.50;4.80;;;;;24.30;100837.00;;;;2079965;28;20363;-57
2023/06/25 02:43:16;;;;;;;5.70;5.20;;;;;24.30;100833.00;;;;2084249;28;20216;-57
2023/06/25 02:44:16;;;;;;;5.10;4.63;;;;;24.30;100828.00;;;;2085242;28;20220;-57
2023/06/25 02:45:16;;;;;;;5.57;4.50;;;;;24.30;100834.00;;;;2084525;28;20212;-57
2023/06/25 02:46:17;;;;;;;5.23;4.33;;;;;24.30;100831.00;;;;2070141;28;20210;-55
2023/06/25 02:47:17;;;;;;;4.77;4.37;;;;;24.30;100838.00;;;;2081543;28;20224;-56
2023/06/25 02:48:18;;;;;;;5.57;4.93;;;;;24.30;100832.00;;;;2085254;28;20209;-56
2023/06/25 02:49:18;;;;;;;5.30;4.63;;;;;24.30;100837.00;;;;2082316;28;20731;-57
2023/06/25 02:50:18;;;;;;;4.67;4.20;;;;;24.30;100850.00;;;;2080986;28;20741;-56
2023/06/25 02:51:19;;;;;;;5.40;4.90;;;;;24.30;100843.00;;;;2067457;28;20259;-57
2023/06/25 02:52:19;;;;;;;5.07;4.60;;;;;24.30;100856.00;;;;2083750;28;20209;-57
2023/06/25 02:53:19;;;;;;;4.53;4.10;;;;;24.30;100831.00;;;;2085071;28;20706;-57
2023/06/25 02:54:20;;;;;;;4.40;4.00;;;;;24.30;100831.00;;;;2081202;28;20682;-57
2023/06/25 02:55:20;;;;;;;5.40;4.90;;;;;24.30;100843.00;;;;2085322;28;20231;-57
2023/06/25 02:56:20;;;;;;;5.07;4.67;;;;;24.30;100832.00;;;;2070067;28;20256;-57
2023/06/25 02:57:23;;;;;;;4.50;4.10;;;;;24.30;100828.00;;;;2083953;28;20208;-57
2023/06/25 02:58:23;;;;;;;5.95;4.80;;;;;24.30;100829.00;;;;2074458;28;20613;-56
2023/06/25 02:59:23;;;;;;;5.00;4.50;;;;;24.30;100824.00;;;;2075850;28;20213;-57
2023/06/25 03:00:24;;;;;;;5.73;5.23;;;;;24.30;100815.00;;;;2072938;28;20218;-56
2023/06/25 03:01:24;;;;;;;6.03;5.43;;;;;24.30;100825.00;;;;2076420;28;20245;-57
2023/06/25 03:02:24;;;;;;;4.93;4.53;;;;;24.30;100824.00;;;;2073994;28;20670;-57
2023/06/25 03:03:25;;;;;;;5.23;4.73;;;;;24.30;100823.00;;;;2075757;28;20300;-57
2023/06/25 03:04:25;;;;;;;4.53;4.13;;;;;23.80;100821.00;;;;2085194;28;20217;-57
2023/06/25 03:05:25;;;;;;;5.47;4.90;;;;;24.00;100820.00;;;;2071552;28;20213;-58
2023/06/25 03:06:26;;;;;;;4.80;3.80;;;;;24.30;100824.00;;;;2079450;28;20210;-57
2023/06/25 03:07:26;;;;;;;4.93;4.43;;;;;24.20;100819.00;;;;2070569;28;20224;-57
2023/06/25 03:08:26;;;;;;;4.90;4.40;;;;;24.20;100822.00;;;;2070450;28;20218;-56
2023/06/25 03:09:27;;;;;;;4.93;4.53;;;;;24.30;100818.00;;;;2083418;28;20223;-56
2023/06/25 03:10:29;;;;;;;4.87;4.47;;;;;24.30;100813.00;;;;2059340;28;20219;-56
2023/06/25 03:11:29;;;;;;;5.00;4.50;;;;;24.30;100815.00;;;;2075392;28;20239;-56
2023/06/25 03:12:30;;;;;;;4.33;3.77;;;;;24.30;100816.00;;;;2084186;28;20573;-55
2023/06/25 03:13:30;;;;;;;6.30;4.60;;;;;24.30;100816.00;;;;2084118;28;20243;-57
2023/06/25 03:14:31;;;;;;;5.57;5.07;;;;;24.30;100819.00;;;;2083576;28;20216;-57
2023/06/25 03:15:31;;;;;;;5.13;4.73;;;;;24.30;100824.00;;;;2074918;28;20240;-56
2023/06/25 03:16:31;;;;;;;6.83;4.37;;;;;24.30;100821.00;;;;2079150;28;20221;-56
2023/06/25 03:17:32;;;;;;;5.37;4.40;;;;;24.30;100820.00;;;;2069420;28;20209;-56
2023/06/25 03:18:32;;;;;;;4.90;4.40;;;;;24.20;100820.00;;;;2075916;28;20217;-56
2023/06/25 03:19:32;;;;;;;4.73;4.33;;;;;24.30;100819.00;;;;2084299;28;20212;-57
2023/06/25 03:20:33;;;;;;;4.80;4.40;;;;;24.30;100816.00;;;;2066358;28;22880;-56
2023/06/25 03:21:34;;;;;;;5.40;4.90;;;;;24.30;100818.00;;;;2073151;28;20232;-57
2023/06/25 03:22:34;;;;;;;5.33;4.83;;;;;24.30;100813.00;;;;2085149;28;20236;-57
2023/06/25 03:23:34;;;;;;;4.57;4.17;;;;;24.30;100817.00;;;;2084819;28;20485;-57
2023/06/25 03:24:35;;;;;;;4.70;4.30;;;;;24.30;100823.00;;;;2075610;28;20332;-57
2023/06/25 03:25:35;;;;;;;5.10;4.60;;;;;24.20;100816.00;;;;2066313;28;20237;-56
2023/06/25 03:26:35;;;;;;;5.70;3.97;;;;;24.20;100820.00;;;;2082796;28;20237;-56
2023/06/25 03:27:36;;;;;;;4.73;4.00;;;;;24.20;100820.00;;;;2085251;28;20228;-57
2023/06/25 03:28:36;;;;;;;4.63;4.23;;;;;24.20;100812.00;;;;2079896;28;20209;-56
2023/06/25 03:29:36;;;;;;;4.90;3.93;;;;;24.30;100817.00;;;;2080328;28;20275;-56
2023/06/25 03:30:37;;;;;;;6.10;4.30;;;;;24.20;100817.00;;;;2074034;28;20227;-57
2023/06/25 03:31:37;;;;;;;4.60;4.10;;;;;24.20;100817.00;;;;2076808;28;20221;-56
2023/06/25 03:32:37;;;;;;;5.03;4.50;;;;;24.20;100817.00;;;;2081323;28;20228;-57
2023/06/25 03:33:38;;;;;;;4.47;4.07;;;;;24.30;100809.00;;;;2083357;28;20216;-56
2023/06/25 03:34:38;;;;;;;4.70;4.20;;;;;24.20;100809.00;;;;2085108;28;20228;-57
2023/06/25 03:35:38;;;;;;;4.60;4.20;;;;;24.20;100812.00;;;;2069594;28;20225;-57
2023/06/25 03:36:38;;;;;;;4.57;4.17;;;;;24.20;100815.00;;;;2085271;28;20345;-56
2023/06/25 03:37:39;;;;;;;5.50;5.00;;;;;24.20;100809.00;;;;2081841;28;20217;-57
2023/06/25 03:38:39;;;;;;;4.60;4.20;;;;;24.20;100820.00;;;;2084770;28;20248;-56
2023/06/25 03:39:39;;;;;;;4.90;4.40;;;;;24.20;100810.00;;;;2077242;28;20614;-56
2023/06/25 03:40:40;;;;;;;4.00;3.63;;;;;24.20;100813.00;;;;2074243;28;20629;-56
2023/06/25 03:41:40;;;;;;;5.40;4.50;;;;;24.20;100816.00;;;;2068324;28;20236;-57
2023/06/25 03:42:40;;;;;;;5.00;4.33;;;;;24.20;100804.00;;;;2061905;28;20691;-56
2023/06/25 03:43:41;;;;;;;5.47;4.40;;;;;24.20;100810.00;;;;2084538;28;20739;-56
2023/06/25 03:44:46;;;;;;;4.80;4.40;;;;;24.20;100812.00;;;;2077030;28;20768;-57
2023/06/25 03:45:46;;;;;;;4.68;4.28;;;;;24.20;100810.00;;;;2073268;28;20237;-57
2023/06/25 03:46:47;;;;;;;5.80;4.50;;;;;24.20;100810.00;;;;2085199;28;20673;-57
2023/06/25 03:47:47;;;;;;;5.20;4.77;;;;;24.20;100804.00;;;;2083294;28;20241;-57
2023/06/25 03:48:47;;;;;;;5.53;4.67;;;;;24.20;100809.00;;;;2079474;28;20213;-57
2023/06/25 03:49:48;;;;;;;4.63;4.23;;;;;24.20;100805.00;;;;2084402;28;20228;-56
2023/06/25 03:50:48;;;;;;;5.50;4.63;;;;;24.20;100804.00;;;;2074326;28;20225;-56
2023/06/25 03:51:48;;;;;;;5.77;4.70;;;;;24.20;100806.00;;;;2077395;28;20292;-57
2023/06/25 03:52:49;;;;;;;5.37;4.63;;;;;24.20;100808.00;;;;2084336;28;20224;-57
2023/06/25 03:53:49;;;;;;;4.93;4.53;;;;;24.20;100809.00;;;;2075632;28;20217;-58
2023/06/25 03:54:49;;;;;;;5.00;4.50;;;;;24.20;100806.00;;;;2075694;28;20236;-57
2023/06/25 03:55:50;;;;;;;5.50;5.00;;;;;24.20;100804.00;;;;2069055;28;20217;-56
2023/06/25 03:56:50;;;;;;;5.00;4.50;;;;;24.20;100809.00;;;;2084179;28;20208;-56
2023/06/25 03:57:50;;;;;;;4.70;4.30;;;;;24.20;100806.00;;;;2085228;28;20232;-56
2023/06/25 03:58:51;;;;;;;5.27;4.47;;;;;24.20;100810.00;;;;2080749;28;20225;-56
2023/06/25 03:59:51;;;;;;;4.77;4.37;;;;;24.20;100809.00;;;;2082856;28;20648;-56
2023/06/25 04:00:52;;;;;;;4.90;3.97;;;;;24.20;100809.00;;;;2066883;28;20225;-56
2023/06/25 04:01:52;;;;;;;4.60;4.20;;;;;24.20;100810.00;;;;2084147;28;20205;-56
2023/06/25 04:02:52;;;;;;;5.83;4.90;;;;;24.20;100806.00;;;;2085200;28;20282;-57
2023/06/25 04:03:53;;;;;;;5.40;4.27;;;;;24.20;100803.00;;;;2084316;28;20213;-56
2023/06/25 04:04:53;;;;;;;5.23;4.73;;;;;24.20;100816.00;;;;2084941;28;20213;-57
2023/06/25 04:05:53;;;;;;;6.00;5.40;;;;;24.20;100806.00;;;;2063522;28;20759;-57
2023/06/25 04:06:54;;;;;;;4.70;4.00;;;;;24.20;100809.00;;;;2073464;28;20210;-57
2023/06/25 04:07:54;;;;;;;4.60;4.20;;;;;24.20;100810.00;;;;2081143;28;20690;-57
2023/06/25 04:08:54;;;;;;;5.50;4.40;;;;;24.20;100805.00;;;;2084978;28;20727;-56
2023/06/25 04:09:55;;;;;;;4.83;4.33;;;;;24.20;100803.00;;;;2082122;28;20229;-57
2023/06/25 04:10:55;;;;;;;5.13;4.63;;;;;24.20;100805.00;;;;2066997;28;20218;-56
2023/06/25 04:11:55;;;;;;;5.50;4.40;;;;;24.20;100806.00;;;;2083184;28;20217;-57
2023/06/25 04:12:56;;;;;;;4.47;4.07;;;;;24.20;100807.00;;;;2078351;28;20224;-58
2023/06/25 04:13:56;;;;;;;4.77;4.30;;;;;24.20;100812.00;;;;2082163;28;20270;-57
2023/06/25 04:14:56;;;;;;;4.70;4.20;;;;;24.20;100813.00;;;;2081744;28;20205;-56
2023/06/25 04:15:57;;;;;;;4.90;4.40;;;;;24.20;100811.00;;;;2064811;28;20268;-57
2023/06/25 04:16:57;;;;;;;5.03;4.50;;;;;24.20;100807.00;;;;2075424;28;20197;-57
2023/06/25 04:17:57;;;;;;;5.33;4.70;;;;;24.20;100797.00;;;;2084264;28;20881;-56
2023/06/25 04:18:58;;;;;;;6.70;4.80;;;;;24.20;100818.00;;;;2084203;28;20786;-56
2023/06/25 04:19:58;;;;;;;5.13;4.60;;;;;24.20;100808.00;;;;2082055;28;20204;-56
2023/06/25 04:20:58;;;;;;;4.93;4.40;;;;;24.20;100808.00;;;;2066661;28;20217;-57
2023/06/25 04:21:59;;;;;;;5.00;4.60;;;;;24.20;100809.00;;;;2082094;28;20265;-56
2023/06/25 04:23:00;;;;;;;4.60;4.20;;;;;24.20;100813.00;;;;2080380;28;20237;-56
2023/06/25 04:24:00;;;;;;;4.70;4.30;;;;;24.20;100809.00;;;;2076909;28;20216;-56
2023/06/25 04:25:01;;;;;;;5.63;4.63;;;;;24.20;100804.00;;;;2081969;28;20455;-56
2023/06/25 04:26:01;;;;;;;5.60;5.07;;;;;24.20;100806.00;;;;2064896;28;20563;-57
2023/06/25 04:27:01;;;;;;;4.80;4.40;;;;;24.20;100806.00;;;;2074802;28;20206;-56
2023/06/25 04:28:02;;;;;;;5.10;4.60;;;;;24.30;100806.00;;;;2078972;28;20209;-56
2023/06/25 04:29:02;;;;;;;5.20;4.70;;;;;24.00;100805.00;;;;2080289;28;20300;-56
2023/06/25 04:30:03;;;;;;;6.50;5.57;;;;;23.60;100811.00;;;;2084931;28;20254;-57
2023/06/25 04:31:03;;;;;;;5.50;4.90;;;;;23.60;100806.00;;;;2064878;28;20755;-56
2023/06/25 04:32:04;;;;;;;5.33;4.83;;;;;23.80;100810.00;;;;2072924;28;20214;-56
2023/06/25 04:33:05;;;;;;;5.30;4.80;;;;;23.90;100805.00;;;;2082725;28;20209;-56
2023/06/25 04:34:06;;;;;;;5.50;4.00;;;;;24.00;100805.00;;;;2082356;28;20601;-57
2023/06/25 04:35:07;;;;;;;5.53;4.93;;;;;24.10;100797.00;;;;2080020;28;20327;-56
2023/06/25 04:36:09;;;;;;;6.10;4.40;;;;;24.10;100796.00;;;;2071090;28;20244;-56
2023/06/25 04:37:09;;;;;;;5.20;4.70;;;;;24.10;100797.00;;;;2083581;28;20225;-56
2023/06/25 04:38:10;;;;;;;4.67;4.27;;;;;24.20;100797.00;;;;2080363;28;20215;-57
2023/06/25 04:39:10;;;;;;;4.63;4.23;;;;;24.20;100797.00;;;;2080913;28;20225;-56
2023/06/25 04:40:12;;;;;;;4.70;4.30;;;;;24.30;100796.00;;;;2075198;28;20304;-56
2023/06/25 04:41:12;;;;;;;4.80;4.30;;;;;24.30;100798.00;;;;2070102;28;20301;-56
2023/06/25 04:42:12;;;;;;;6.87;5.07;;;;;24.40;100801.00;;;;2071213;28;20296;-56
2023/06/25 04:43:13;;;;;;;8.20;6.50;;;;;24.40;100809.00;;;;2074740;28;20240;-56
2023/06/25 04:44:13;;;;;;;14.30;10.37;;;;;24.30;100800.00;;;;2084750;28;20299;-55
2023/06/25 04:45:13;;;;;;;30.70;17.90;;;;;24.40;100808.00;;;;2084019;28;20680;-57
2023/06/25 04:46:14;;;;;;;40.13;26.83;;;;;24.40;100799.00;;;;2070691;28;20616;-56
2023/06/25 04:47:14;;;;;;;48.90;35.33;;;;;24.40;100794.00;;;;2083126;28;20708;-56
2023/06/25 04:48:14;;;;;;;60.13;42.07;;;;;24.40;100797.00;;;;2082554;28;20295;-57
2023/06/25 04:49:15;;;;;;;70.20;46.37;;;;;24.40;100797.00;;;;2080387;28;20214;-56
2023/06/25 04:50:15;;;;;;;71.20;53.57;;;;;24.40;100797.00;;;;2081524;28;20461;-57
2023/06/25 04:51:16;;;;;;;77.40;57.10;;;;;24.40;100802.00;;;;2070462;28;20222;-57
2023/06/25 04:52:19;;;;;;;76.53;55.50;;;;;24.40;100805.00;;;;2077149;28;20233;-57
2023/06/25 04:53:19;;;;;;;85.63;59.08;;;;;24.40;100798.00;;;;2080617;28;20303;-57
2023/06/25 04:54:20;;;;;;;82.53;59.07;;;;;24.40;100799.00;;;;2080695;28;20212;-55
2023/06/25 04:55:20;;;;;;;79.07;55.20;;;;;24.50;100804.00;;;;2084603;28;20236;-56
2023/06/25 04:56:20;;;;;;;62.43;48.77;;;;;24.50;100805.00;;;;2074558;28;20224;-57
2023/06/25 04:57:21;;;;;;;67.70;47.83;;;;;24.40;100802.00;;;;2084066;28;20209;-56
2023/06/25 04:58:21;;;;;;;64.60;46.67;;;;;24.40;100806.00;;;;2080144;28;20218;-56
2023/06/25 04:59:22;;;;;;;62.10;44.90;;;;;24.40;100802.00;;;;2084356;28;20432;-55
2023/06/25 05:00:22;;;;;;;54.47;41.93;;;;;24.40;100803.00;;;;2082095;28;20590;-57